createdAt,value
2022-12-31T00:02:47.549Z,76.65
2022-12-31T00:05:49.471Z,75.03
2022-12-31T00:08:52.027Z,71.13
2022-12-31T00:11:53.906Z,70.96
2022-12-31T00:14:55.727Z,71.14
2022-12-31T00:17:57.565Z,72.97
2022-12-31T00:20:59.423Z,74.09
2022-12-31T00:24:01.603Z,73.77
2022-12-31T00:27:03.493Z,72.61
2022-12-31T00:30:05.573Z,71.37
2022-12-31T00:33:07.453Z,72.57
2022-12-31T00:36:13.438Z,71.80
2022-12-31T00:39:15.335Z,70.46
2022-12-31T00:42:17.200Z,70.16
2022-12-31T00:45:19.127Z,70.45
2022-12-31T00:48:21.158Z,72.73
2022-12-31T00:51:23.655Z,73.41
2022-12-31T00:54:25.558Z,73.09
2022-12-31T00:57:27.405Z,73.89
2022-12-31T01:00:29.299Z,73.10
2022-12-31T01:03:31.217Z,72.82
2022-12-31T01:06:33.176Z,72.28
2022-12-31T01:09:35.215Z,76.54
2022-12-31T01:12:37.208Z,74.23
2022-12-31T01:15:39.173Z,74.98
2022-12-31T01:18:41.407Z,74.75
2022-12-31T01:21:43.864Z,75.10
2022-12-31T01:24:45.696Z,76.19
2022-12-31T01:27:47.511Z,75.18
2022-12-31T01:30:49.394Z,76.04
2022-12-31T01:33:51.401Z,76.92
2022-12-31T01:36:53.255Z,76.81
2022-12-31T01:39:55.115Z,80.49
2022-12-31T01:42:57.151Z,80.04
2022-12-31T01:45:59.085Z,79.39
2022-12-31T01:49:02.362Z,79.25
2022-12-31T01:52:04.237Z,77.01
2022-12-31T01:55:07.933Z,75.70
2022-12-31T01:58:11.389Z,75.67
2022-12-31T02:01:13.992Z,74.47
2022-12-31T02:04:15.897Z,73.85
2022-12-31T02:07:17.860Z,75.41
2022-12-31T02:10:19.736Z,78.08
2022-12-31T02:13:21.604Z,75.43
2022-12-31T02:16:27.312Z,73.71
2022-12-31T02:19:52.285Z,73.63
2022-12-31T02:23:14.392Z,72.81
2022-12-31T02:26:31.377Z,67.27
2022-12-31T02:29:51.627Z,72.53
2022-12-31T02:32:55.618Z,77.95
2022-12-31T02:35:58.628Z,73.68
2022-12-31T02:39:00.546Z,70.18
2022-12-31T02:42:02.842Z,70.55
2022-12-31T02:45:04.897Z,74.41
2022-12-31T02:48:19.185Z,74.29
2022-12-31T02:51:47.281Z,74.20
2022-12-31T02:55:07.799Z,71.22
2022-12-31T02:58:48.434Z,70.05
2022-12-31T03:02:13.804Z,73.35
2022-12-31T03:05:16.293Z,73.22
2022-12-31T03:08:25.435Z,73.99
2022-12-31T03:11:45.823Z,73.57
2022-12-31T03:14:47.654Z,70.05
2022-12-31T03:18:00.657Z,70.97
2022-12-31T03:21:21.256Z,73.35
2022-12-31T03:24:42.006Z,73.03
2022-12-31T03:27:44.545Z,76.58
2022-12-31T03:30:47.839Z,72.35
2022-12-31T03:33:49.684Z,72.60
2022-12-31T03:36:51.624Z,75.69
2022-12-31T03:39:53.523Z,75.98
2022-12-31T03:42:55.410Z,74.88
2022-12-31T03:45:59.821Z,70.07
2022-12-31T03:49:01.754Z,70.89
2022-12-31T03:52:03.726Z,73.52
2022-12-31T03:55:06.201Z,72.90
2022-12-31T03:58:08.063Z,68.22
2022-12-31T04:01:10.052Z,74.60
2022-12-31T04:04:12.144Z,76.68
2022-12-31T04:07:14.015Z,75.88
2022-12-31T04:10:16.953Z,75.73
2022-12-31T04:13:18.809Z,73.92
2022-12-31T04:16:20.667Z,73.91
2022-12-31T04:19:22.590Z,74.11
2022-12-31T04:22:24.438Z,73.08
2022-12-31T04:25:26.287Z,72.87
2022-12-31T04:28:28.113Z,72.56
2022-12-31T04:31:30.152Z,72.54
2022-12-31T04:34:32.413Z,73.53
2022-12-31T04:37:34.286Z,77.78
2022-12-31T04:40:56.129Z,77.65
2022-12-31T04:43:58.449Z,77.45
2022-12-31T04:47:00.410Z,77.03
2022-12-31T04:50:02.577Z,74.35
2022-12-31T04:53:04.435Z,73.90
2022-12-31T04:56:06.908Z,74.37
2022-12-31T04:59:10.163Z,73.22
2022-12-31T05:02:12.166Z,70.83
2022-12-31T05:05:14.117Z,73.60
2022-12-31T05:08:15.977Z,73.25
2022-12-31T05:11:18.021Z,76.07
2022-12-31T05:14:20.064Z,75.60
2022-12-31T05:17:22.020Z,73.81
2022-12-31T05:20:23.903Z,74.35
2022-12-31T05:23:25.788Z,76.55
2022-12-31T05:26:27.655Z,79.74
2022-12-31T05:29:29.570Z,79.64
2022-12-31T05:32:31.593Z,79.80
2022-12-31T05:35:34.455Z,79.90
2022-12-31T05:38:37.194Z,74.76
2022-12-31T05:41:39.102Z,77.08
2022-12-31T05:44:40.984Z,75.76
2022-12-31T05:47:42.986Z,82.54
2022-12-31T05:50:44.901Z,80.12
2022-12-31T05:53:46.844Z,79.02
2022-12-31T05:56:48.727Z,80.48
2022-12-31T05:59:53.525Z,81.91
2022-12-31T06:02:55.518Z,79.92
2022-12-31T06:05:57.495Z,78.04
2022-12-31T06:08:59.360Z,76.35
2022-12-31T06:12:01.186Z,76.59
2022-12-31T06:15:03.162Z,77.99
2022-12-31T06:18:05.091Z,77.00
2022-12-31T06:21:07.081Z,80.30
2022-12-31T06:24:09.066Z,78.38
2022-12-31T06:27:10.942Z,73.79
2022-12-31T06:30:13.254Z,75.10
2022-12-31T06:33:15.392Z,77.41
2022-12-31T06:36:17.401Z,77.25
2022-12-31T06:39:19.356Z,76.78
2022-12-31T06:42:21.199Z,76.72
2022-12-31T06:45:23.051Z,76.09
2022-12-31T06:48:25.017Z,73.73
2022-12-31T06:51:26.922Z,72.56
2022-12-31T06:54:28.832Z,72.06
2022-12-31T06:57:30.946Z,73.45
2022-12-31T07:00:32.980Z,73.18
2022-12-31T07:03:37.962Z,74.43
2022-12-31T07:06:46.050Z,75.52
2022-12-31T07:09:47.885Z,75.23
2022-12-31T07:13:09.708Z,76.31
2022-12-31T07:16:26.670Z,78.48
2022-12-31T07:19:37.794Z,77.78
2022-12-31T07:22:40.159Z,74.45
2022-12-31T07:25:44.503Z,76.04
2022-12-31T07:28:52.598Z,76.09
2022-12-31T07:31:57.244Z,75.17
2022-12-31T07:35:05.403Z,74.16
2022-12-31T07:38:22.401Z,72.08
2022-12-31T07:41:27.001Z,71.77
2022-12-31T07:44:41.492Z,67.63
2022-12-31T07:47:43.682Z,68.38
2022-12-31T07:50:45.621Z,70.06
2022-12-31T07:53:47.674Z,72.16
2022-12-31T07:56:49.585Z,70.64
2022-12-31T07:59:51.510Z,68.25
2022-12-31T08:02:56.574Z,70.90
2022-12-31T08:06:08.663Z,70.25
2022-12-31T08:09:13.682Z,67.86
2022-12-31T08:12:15.805Z,71.93
2022-12-31T08:15:18.384Z,74.03
2022-12-31T08:18:20.369Z,73.36
2022-12-31T08:21:29.479Z,71.70
2022-12-31T08:24:41.315Z,70.40
2022-12-31T08:27:46.212Z,66.21
2022-12-31T08:30:53.950Z,69.11
2022-12-31T08:34:06.186Z,67.87
2022-12-31T08:37:08.253Z,75.10
2022-12-31T08:40:33.478Z,70.51
2022-12-31T08:43:41.205Z,71.46
2022-12-31T08:47:02.006Z,69.02
2022-12-31T08:50:04.294Z,65.28
2022-12-31T08:53:06.307Z,69.82
2022-12-31T08:56:10.689Z,71.34
2022-12-31T08:59:31.317Z,68.31
2022-12-31T09:02:33.215Z,66.43
2022-12-31T09:05:53.126Z,71.92
2022-12-31T09:09:01.039Z,70.24
2022-12-31T09:12:05.907Z,66.64
2022-12-31T09:15:07.974Z,67.73
2022-12-31T09:18:10.133Z,67.80
2022-12-31T09:21:13.497Z,69.26
2022-12-31T09:24:15.763Z,73.22
2022-12-31T09:27:23.865Z,69.46
2022-12-31T09:30:29.420Z,66.70
2022-12-31T09:33:43.211Z,70.15
2022-12-31T09:36:46.900Z,67.15
2022-12-31T09:39:48.848Z,67.20
2022-12-31T09:43:09.639Z,68.96
2022-12-31T09:46:30.507Z,67.17
2022-12-31T09:49:32.524Z,65.73
2022-12-31T09:52:47.700Z,64.14
2022-12-31T09:55:51.608Z,65.50
2022-12-31T09:59:04.111Z,63.22
2022-12-31T10:02:15.210Z,61.11
2022-12-31T10:05:30.123Z,60.93
2022-12-31T10:08:50.724Z,63.50
2022-12-31T10:11:55.724Z,63.97
2022-12-31T10:14:57.753Z,61.27
2022-12-31T10:18:14.175Z,61.74
2022-12-31T10:21:34.860Z,59.38
2022-12-31T10:24:49.708Z,61.17
2022-12-31T10:27:55.542Z,60.31
2022-12-31T10:31:03.025Z,60.85
2022-12-31T10:34:04.871Z,61.83
2022-12-31T10:37:07.056Z,64.08
2022-12-31T10:40:08.876Z,64.24
2022-12-31T10:43:16.785Z,61.52
2022-12-31T10:46:30.606Z,60.94
2022-12-31T10:49:41.754Z,64.19
2022-12-31T10:52:43.574Z,63.84
2022-12-31T10:55:45.642Z,63.94
2022-12-31T10:59:06.234Z,63.52
2022-12-31T11:02:08.388Z,61.43
2022-12-31T11:05:25.679Z,65.25
2022-12-31T11:08:39.696Z,62.23
2022-12-31T11:11:47.992Z,65.55
2022-12-31T11:15:08.770Z,65.45
2022-12-31T11:18:18.211Z,65.00
2022-12-31T11:21:39.461Z,64.45
2022-12-31T11:24:58.503Z,65.30
2022-12-31T11:28:19.192Z,62.39
2022-12-31T11:31:42.513Z,64.24
2022-12-31T11:34:50.283Z,64.60
2022-12-31T11:37:53.357Z,65.55
2022-12-31T11:40:55.243Z,64.92
2022-12-31T11:44:03.636Z,66.22
2022-12-31T11:47:31.970Z,62.38
2022-12-31T11:50:33.908Z,66.33
2022-12-31T11:53:35.924Z,64.96
2022-12-31T11:56:39.118Z,64.81
2022-12-31T11:59:41.147Z,62.03
2022-12-31T12:02:43.701Z,64.56
2022-12-31T12:05:45.595Z,63.88
2022-12-31T12:08:47.748Z,64.24
2022-12-31T12:11:57.322Z,62.00
2022-12-31T12:14:59.267Z,64.45
2022-12-31T12:18:05.401Z,62.98
2022-12-31T12:21:16.658Z,63.92
2022-12-31T12:24:18.626Z,61.59
2022-12-31T12:27:22.024Z,62.66
2022-12-31T12:30:24.865Z,62.15
2022-12-31T12:33:27.293Z,60.46
2022-12-31T12:36:29.205Z,61.75
2022-12-31T12:39:32.638Z,62.54
2022-12-31T12:42:34.559Z,61.03
2022-12-31T12:45:49.017Z,57.62
2022-12-31T12:48:55.148Z,59.73
2022-12-31T12:52:07.052Z,61.84
2022-12-31T12:55:18.072Z,60.10
2022-12-31T12:58:58.293Z,58.52
2022-12-31T13:02:19.235Z,60.70
2022-12-31T13:05:27.745Z,62.70
2022-12-31T13:08:35.793Z,64.10
2022-12-31T13:11:40.629Z,64.03
2022-12-31T13:14:42.530Z,61.65
2022-12-31T13:18:01.915Z,60.67
2022-12-31T13:21:30.664Z,60.54
2022-12-31T13:24:32.538Z,60.32
2022-12-31T13:27:35.668Z,61.99
2022-12-31T13:30:41.894Z,63.11
2022-12-31T13:33:48.379Z,58.72
2022-12-31T13:36:50.862Z,60.75
2022-12-31T13:39:55.839Z,59.85
2022-12-31T13:43:00.234Z,60.68
2022-12-31T13:46:08.892Z,58.80
2022-12-31T13:49:21.793Z,62.20
2022-12-31T13:52:40.574Z,60.75
2022-12-31T13:55:44.391Z,61.62
2022-12-31T13:59:03.819Z,64.14
2022-12-31T14:02:24.800Z,63.77
2022-12-31T14:05:30.229Z,63.39
2022-12-31T14:08:32.209Z,63.09
2022-12-31T14:11:52.758Z,62.85
2022-12-31T14:14:57.589Z,61.24
2022-12-31T14:18:17.876Z,64.25
2022-12-31T14:21:28.914Z,62.85
2022-12-31T14:24:51.280Z,63.23
2022-12-31T14:27:53.559Z,60.52
2022-12-31T14:31:17.126Z,60.81
2022-12-31T14:34:21.507Z,59.41
2022-12-31T14:37:28.067Z,62.77
2022-12-31T14:40:32.982Z,62.59
2022-12-31T14:43:39.543Z,62.17
2022-12-31T14:46:44.555Z,61.03
2022-12-31T14:49:52.462Z,60.43
2022-12-31T14:53:00.425Z,62.89
2022-12-31T14:56:03.469Z,63.62
2022-12-31T14:59:19.775Z,62.74
2022-12-31T15:02:34.681Z,61.30
2022-12-31T15:05:37.273Z,60.77
2022-12-31T15:08:51.525Z,62.80
2022-12-31T15:12:08.654Z,63.42
2022-12-31T15:15:13.349Z,64.45
2022-12-31T15:18:27.650Z,64.60
2022-12-31T15:21:35.689Z,63.06
2022-12-31T15:24:37.583Z,65.21
2022-12-31T15:27:42.343Z,68.44
2022-12-31T15:30:47.891Z,68.37
2022-12-31T15:33:54.218Z,67.43
2022-12-31T15:36:57.483Z,64.77
2022-12-31T15:40:18.252Z,64.47
2022-12-31T15:43:32.184Z,63.91
2022-12-31T15:46:36.935Z,64.33
2022-12-31T15:49:41.067Z,63.88
2022-12-31T15:52:43.431Z,64.72
2022-12-31T15:55:46.727Z,66.28
2022-12-31T15:58:48.525Z,65.77
2022-12-31T16:01:50.581Z,65.14
2022-12-31T16:04:52.533Z,63.73
2022-12-31T16:07:58.316Z,64.56
2022-12-31T16:11:00.291Z,63.98
2022-12-31T16:14:02.148Z,64.68
2022-12-31T16:17:04.264Z,63.16
2022-12-31T16:20:22.899Z,65.27
2022-12-31T16:23:25.913Z,65.45
2022-12-31T16:26:29.432Z,64.22
2022-12-31T16:29:31.244Z,64.58
2022-12-31T16:32:37.319Z,64.21
2022-12-31T16:35:39.391Z,64.38
2022-12-31T16:38:41.323Z,64.50
2022-12-31T16:41:43.464Z,64.84
2022-12-31T16:44:45.917Z,64.20
2022-12-31T16:47:47.784Z,64.69
2022-12-31T16:50:50.976Z,64.80
2022-12-31T16:53:52.864Z,66.24
2022-12-31T16:56:54.687Z,64.27
2022-12-31T17:00:04.410Z,67.02
2022-12-31T17:03:25.251Z,64.54
2022-12-31T17:06:28.413Z,65.39
2022-12-31T17:09:35.035Z,64.96
2022-12-31T17:13:25.443Z,64.57
2022-12-31T17:16:09.394Z,65.35
2022-12-31T17:19:40.864Z,65.05
2022-12-31T17:22:42.922Z,64.60
2022-12-31T17:25:44.907Z,65.13
2022-12-31T17:28:47.714Z,66.56
2022-12-31T17:31:59.915Z,65.05
2022-12-31T17:35:01.784Z,65.11
2022-12-31T17:38:22.086Z,65.47
2022-12-31T17:41:27.035Z,65.84
2022-12-31T17:44:29.323Z,66.05
2022-12-31T17:47:35.611Z,66.06
2022-12-31T17:50:37.439Z,65.87
2022-12-31T17:53:39.332Z,65.98
2022-12-31T17:56:41.366Z,66.37
2022-12-31T17:59:43.231Z,66.00
2022-12-31T18:02:45.616Z,65.60
2022-12-31T18:05:47.607Z,65.59
2022-12-31T18:08:49.671Z,66.01
2022-12-31T18:11:54.353Z,66.02
2022-12-31T18:14:58.798Z,64.54
2022-12-31T18:18:00.642Z,64.45
2022-12-31T18:21:26.751Z,65.19
2022-12-31T18:24:28.602Z,64.61
2022-12-31T18:27:34.106Z,64.37
2022-12-31T18:30:35.944Z,65.31
2022-12-31T18:33:37.910Z,65.85
2022-12-31T18:36:40.157Z,65.33
2022-12-31T18:39:42.045Z,64.22
2022-12-31T18:42:43.895Z,65.52
2022-12-31T18:45:46.431Z,66.10
2022-12-31T18:48:48.456Z,65.75
2022-12-31T18:51:54.088Z,65.65
2022-12-31T18:54:55.956Z,66.03
2022-12-31T18:57:57.780Z,64.36
2022-12-31T19:00:59.877Z,65.14
2022-12-31T19:04:10.930Z,66.91
2022-12-31T19:07:13.008Z,66.53
2022-12-31T19:10:16.362Z,67.96
2022-12-31T19:13:19.317Z,67.98
2022-12-31T19:16:21.237Z,67.55
2022-12-31T19:19:23.137Z,65.96
2022-12-31T19:22:25.269Z,67.18
2022-12-31T19:25:34.294Z,66.25
2022-12-31T19:28:36.299Z,66.37
2022-12-31T19:31:38.174Z,69.66
2022-12-31T19:34:40.038Z,68.59
2022-12-31T19:37:42.431Z,68.63
2022-12-31T19:40:44.445Z,69.62
2022-12-31T19:43:47.441Z,68.60
2022-12-31T19:46:49.416Z,69.38
2022-12-31T19:49:51.332Z,67.56
2022-12-31T19:52:54.619Z,65.53
2022-12-31T19:55:56.528Z,66.68
2022-12-31T19:58:58.360Z,68.36
2022-12-31T20:02:00.413Z,69.58
2022-12-31T20:05:02.358Z,67.84
2022-12-31T20:08:04.326Z,66.76
2022-12-31T20:11:10.251Z,67.25
2022-12-31T20:14:12.169Z,68.55
2022-12-31T20:17:14.190Z,68.06
2022-12-31T20:20:16.210Z,67.49
2022-12-31T20:23:18.245Z,68.43
2022-12-31T20:26:20.607Z,68.05
2022-12-31T20:29:22.562Z,68.01
2022-12-31T20:32:24.467Z,68.53
2022-12-31T20:35:26.366Z,68.06
2022-12-31T20:38:28.512Z,68.13
2022-12-31T20:41:32.129Z,70.17
2022-12-31T20:44:33.962Z,68.77
2022-12-31T20:47:35.879Z,69.69
2022-12-31T20:50:37.923Z,68.51
2022-12-31T20:53:39.917Z,66.96
2022-12-31T20:56:41.856Z,65.39
2022-12-31T20:59:43.818Z,66.58
2022-12-31T21:02:51.535Z,68.67
2022-12-31T21:05:58.475Z,68.93
2022-12-31T21:09:01.184Z,66.28
2022-12-31T21:12:21.817Z,67.06
2022-12-31T21:15:23.791Z,68.08
2022-12-31T21:18:25.689Z,69.50
2022-12-31T21:21:27.669Z,69.05
2022-12-31T21:24:30.084Z,67.57
2022-12-31T21:27:31.924Z,68.52
2022-12-31T21:30:33.899Z,68.16
2022-12-31T21:33:35.783Z,69.63
2022-12-31T21:36:37.787Z,70.38
2022-12-31T21:39:39.768Z,73.73
2022-12-31T21:42:41.586Z,72.44
2022-12-31T21:45:43.519Z,72.37
2022-12-31T21:48:45.350Z,68.63
2022-12-31T21:52:06.054Z,73.60
2022-12-31T21:55:43.761Z,72.50
2022-12-31T21:58:46.605Z,71.90
2022-12-31T22:02:07.345Z,73.63
2022-12-31T22:05:17.568Z,75.49
2022-12-31T22:08:23.554Z,73.64
2022-12-31T22:11:26.839Z,69.60
2022-12-31T22:14:28.743Z,75.30
2022-12-31T22:17:30.859Z,80.90
2022-12-31T22:20:32.770Z,78.53
2022-12-31T22:23:34.850Z,75.77
2022-12-31T22:26:39.268Z,73.51
2022-12-31T22:29:45.064Z,71.26
2022-12-31T22:32:46.924Z,77.78
2022-12-31T22:36:01.681Z,75.71
2022-12-31T22:39:03.774Z,76.34
2022-12-31T22:42:05.665Z,73.51
2022-12-31T22:45:08.216Z,70.84
2022-12-31T22:48:10.637Z,71.20
2022-12-31T22:51:12.606Z,71.75
2022-12-31T22:54:14.722Z,72.90
2022-12-31T22:57:20.161Z,69.98
2022-12-31T23:00:22.473Z,69.70
2022-12-31T23:03:24.459Z,70.42
2022-12-31T23:06:26.409Z,70.53
2022-12-31T23:09:46.817Z,72.54
2022-12-31T23:12:48.803Z,72.30
2022-12-31T23:16:09.648Z,74.15
2022-12-31T23:19:30.400Z,72.22
2022-12-31T23:22:50.703Z,71.15
2022-12-31T23:25:52.668Z,70.42
2022-12-31T23:28:54.604Z,71.10
2022-12-31T23:31:56.510Z,70.63
2022-12-31T23:34:58.397Z,69.15
2022-12-31T23:38:00.309Z,70.18
2022-12-31T23:41:11.131Z,71.73
2022-12-31T23:44:13.153Z,72.72
2022-12-31T23:47:14.994Z,71.22
2022-12-31T23:50:17.151Z,73.01
2022-12-31T23:53:19.040Z,71.86
2022-12-31T23:56:23.904Z,71.87
2022-12-31T23:59:26.113Z,72.38
